Cord, Arkansas
Current Conditions -  °F | °C
As of 8:56 AM on Friday 28 Nov 2014 (Local Time) from KM19 Reporting Station
Clear Clear  
Wind Chill: 29°   Ceiling: Unl
Heat Index: 38°   Visibility: 10mi
Dew Point: 33°   Wind: 15mph
Humidity: 82%   Direction: 180°S
Pressure: 30.36"   Gusts: NA
Location:  35.81°N, 91.34°W
Report Text: KM19 281456Z AUTO 18013KT 10SM CLR 03/01 A3036 RMK AO2 58008 T00330005 SLP281
Loading
Personal Weather Stations






























Interactive Weather Map New forecast layout! Learn more

10-Day Weather Forecast

Advertisements
Track Severe Weather on mobile